sensor_id;sensor_type;location;lat;lon;timestamp;pressure;altitude;pressure_sealevel;temperature;humidity
78835;BME280;68187;42.682;23.352;2023-05-07T00:01:30;95380.69;;;10.71;74.96
78835;BME280;68187;42.682;23.352;2023-05-07T00:03:57;95387.56;;;10.72;74.30
78835;BME280;68187;42.682;23.352;2023-05-07T00:06:24;95382.25;;;10.62;74.33
78835;BME280;68187;42.682;23.352;2023-05-07T00:08:51;95387.78;;;10.60;74.36
78835;BME280;68187;42.682;23.352;2023-05-07T00:11:18;95393.84;;;10.61;74.49
78835;BME280;68187;42.682;23.352;2023-05-07T00:13:45;95395.19;;;10.58;74.42
78835;BME280;68187;42.682;23.352;2023-05-07T00:16:12;95398.03;;;10.52;75.10
78835;BME280;68187;42.682;23.352;2023-05-07T00:18:40;95390.09;;;10.52;75.07
78835;BME280;68187;42.682;23.352;2023-05-07T00:21:07;95381.91;;;10.48;75.04
78835;BME280;68187;42.682;23.352;2023-05-07T00:23:33;95379.78;;;10.40;74.53
78835;BME280;68187;42.682;23.352;2023-05-07T00:26:00;95378.13;;;10.34;75.00
78835;BME280;68187;42.682;23.352;2023-05-07T00:28:27;95381.31;;;10.31;75.38
78835;BME280;68187;42.682;23.352;2023-05-07T00:30:53;95377.06;;;10.30;75.20
78835;BME280;68187;42.682;23.352;2023-05-07T00:33:20;95382.09;;;10.32;74.76
78835;BME280;68187;42.682;23.352;2023-05-07T00:35:48;95382.84;;;10.27;74.89
78835;BME280;68187;42.682;23.352;2023-05-07T00:38:15;95386.78;;;10.25;75.33
78835;BME280;68187;42.682;23.352;2023-05-07T00:40:42;95390.19;;;10.20;75.11
78835;BME280;68187;42.682;23.352;2023-05-07T00:43:08;95387.25;;;10.12;75.43
78835;BME280;68187;42.682;23.352;2023-05-07T00:45:35;95386.16;;;10.07;75.54
78835;BME280;68187;42.682;23.352;2023-05-07T00:48:02;95387.94;;;10.02;76.18
78835;BME280;68187;42.682;23.352;2023-05-07T00:50:30;95399.31;;;10.02;76.30
78835;BME280;68187;42.682;23.352;2023-05-07T00:52:59;95397.16;;;9.99;75.93
78835;BME280;68187;42.682;23.352;2023-05-07T00:55:26;95377.56;;;9.85;76.12
78835;BME280;68187;42.682;23.352;2023-05-07T00:57:53;95397.16;;;9.94;75.88
78835;BME280;68187;42.682;23.352;2023-05-07T01:00:20;95388.34;;;9.84;76.08
78835;BME280;68187;42.682;23.352;2023-05-07T01:02:46;95393.66;;;9.89;76.47
78835;BME280;68187;42.682;23.352;2023-05-07T01:05:15;95378.59;;;9.84;76.14
78835;BME280;68187;42.682;23.352;2023-05-07T01:07:44;95393.13;;;9.87;76.00
78835;BME280;68187;42.682;23.352;2023-05-07T01:10:12;95394.47;;;9.89;75.93
78835;BME280;68187;42.682;23.352;2023-05-07T01:12:39;95399.50;;;9.91;75.88
78835;BME280;68187;42.682;23.352;2023-05-07T01:15:08;95389.16;;;9.84;75.95
78835;BME280;68187;42.682;23.352;2023-05-07T01:17:36;95390.97;;;9.79;76.44
78835;BME280;68187;42.682;23.352;2023-05-07T01:20:04;95387.31;;;9.85;76.21
78835;BME280;68187;42.682;23.352;2023-05-07T01:22:34;95390.50;;;9.87;76.33
78835;BME280;68187;42.682;23.352;2023-05-07T01:25:02;95385.47;;;9.85;75.99
78835;BME280;68187;42.682;23.352;2023-05-07T01:27:29;95381.25;;;9.84;75.28
78835;BME280;68187;42.682;23.352;2023-05-07T01:29:56;95392.13;;;9.93;75.12
78835;BME280;68187;42.682;23.352;2023-05-07T01:32:28;95389.00;;;10.01;74.49
78835;BME280;68187;42.682;23.352;2023-05-07T01:34:57;95389.00;;;10.01;74.95
78835;BME280;68187;42.682;23.352;2023-05-07T01:37:25;95385.84;;;10.04;74.64
78835;BME280;68187;42.682;23.352;2023-05-07T01:39:53;95386.41;;;10.06;75.05
78835;BME280;68187;42.682;23.352;2023-05-07T01:42:21;95379.75;;;9.98;74.74
78835;BME280;68187;42.682;23.352;2023-05-07T01:44:48;95384.53;;;10.01;74.88
78835;BME280;68187;42.682;23.352;2023-05-07T01:47:16;95375.25;;;9.94;74.99
78835;BME280;68187;42.682;23.352;2023-05-07T01:49:43;95377.34;;;9.92;75.41
78835;BME280;68187;42.682;23.352;2023-05-07T01:52:10;95348.50;;;9.80;75.48
78835;BME280;68187;42.682;23.352;2023-05-07T01:54:37;95365.72;;;9.88;75.92
78835;BME280;68187;42.682;23.352;2023-05-07T01:57:05;95368.91;;;9.90;75.40
78835;BME280;68187;42.682;23.352;2023-05-07T01:59:32;95359.09;;;9.85;75.57
78835;BME280;68187;42.682;23.352;2023-05-07T02:01:59;95358.34;;;9.90;74.75
78835;BME280;68187;42.682;23.352;2023-05-07T02:04:25;95352.75;;;9.86;74.57
78835;BME280;68187;42.682;23.352;2023-05-07T02:06:52;95360.00;;;10.01;74.21
78835;BME280;68187;42.682;23.352;2023-05-07T02:09:19;95351.53;;;10.04;73.99
78835;BME280;68187;42.682;23.352;2023-05-07T02:11:45;95348.41;;;10.07;73.52
78835;BME280;68187;42.682;23.352;2023-05-07T02:14:13;95345.03;;;10.12;73.47
78835;BME280;68187;42.682;23.352;2023-05-07T02:16:40;95340.28;;;10.14;73.19
78835;BME280;68187;42.682;23.352;2023-05-07T02:19:07;95343.22;;;10.22;73.48
78835;BME280;68187;42.682;23.352;2023-05-07T02:21:34;95333.47;;;10.23;73.75
78835;BME280;68187;42.682;23.352;2023-05-07T02:24:00;95341.69;;;10.26;73.76
78835;BME280;68187;42.682;23.352;2023-05-07T02:26:27;95348.53;;;10.27;74.01
78835;BME280;68187;42.682;23.352;2023-05-07T02:28:54;95343.25;;;10.27;73.53
78835;BME280;68187;42.682;23.352;2023-05-07T02:31:22;95332.69;;;10.27;73.86
78835;BME280;68187;42.682;23.352;2023-05-07T02:33:48;95346.22;;;10.36;73.90
78835;BME280;68187;42.682;23.352;2023-05-07T02:36:15;95356.00;;;10.40;73.95
78835;BME280;68187;42.682;23.352;2023-05-07T02:38:42;95354.69;;;10.43;73.62
78835;BME280;68187;42.682;23.352;2023-05-07T02:41:09;95324.00;;;10.32;73.59
78835;BME280;68187;42.682;23.352;2023-05-07T02:43:36;95324.53;;;10.29;74.09
78835;BME280;68187;42.682;23.352;2023-05-07T02:46:03;95350.47;;;10.42;74.14
78835;BME280;68187;42.682;23.352;2023-05-07T02:48:32;95339.59;;;10.38;74.24
78835;BME280;68187;42.682;23.352;2023-05-07T02:50:59;95346.25;;;10.46;74.60
78835;BME280;68187;42.682;23.352;2023-05-07T02:53:26;95343.09;;;10.49;74.92
78835;BME280;68187;42.682;23.352;2023-05-07T02:55:52;95339.13;;;10.46;75.33
78835;BME280;68187;42.682;23.352;2023-05-07T02:58:19;95342.88;;;10.55;74.99
78835;BME280;68187;42.682;23.352;2023-05-07T03:00:46;95351.59;;;10.56;75.76
78835;BME280;68187;42.682;23.352;2023-05-07T03:03:13;95354.75;;;10.58;75.57
78835;BME280;68187;42.682;23.352;2023-05-07T03:05:41;95344.97;;;10.53;75.62
78835;BME280;68187;42.682;23.352;2023-05-07T03:08:08;95357.63;;;10.56;75.85
78835;BME280;68187;42.682;23.352;2023-05-07T03:10:35;95360.00;;;10.53;76.35
78835;BME280;68187;42.682;23.352;2023-05-07T03:13:02;95365.81;;;10.50;76.29
78835;BME280;68187;42.682;23.352;2023-05-07T03:15:29;95366.88;;;10.49;76.61
78835;BME280;68187;42.682;23.352;2023-05-07T03:17:56;95363.66;;;10.42;76.64
78835;BME280;68187;42.682;23.352;2023-05-07T03:20:22;95368.44;;;10.45;77.30
78835;BME280;68187;42.682;23.352;2023-05-07T03:22:50;95378.44;;;10.43;76.71
78835;BME280;68187;42.682;23.352;2023-05-07T03:25:17;95380.56;;;10.41;76.59
78835;BME280;68187;42.682;23.352;2023-05-07T03:27:44;95382.41;;;10.40;76.40
78835;BME280;68187;42.682;23.352;2023-05-07T03:30:11;95369.72;;;10.37;76.83
78835;BME280;68187;42.682;23.352;2023-05-07T03:32:38;95367.59;;;10.34;76.60
78835;BME280;68187;42.682;23.352;2023-05-07T03:35:05;95377.63;;;10.37;77.01
78835;BME280;68187;42.682;23.352;2023-05-07T03:37:32;95378.13;;;10.34;76.66
78835;BME280;68187;42.682;23.352;2023-05-07T03:40:00;95378.69;;;10.36;76.92
78835;BME280;68187;42.682;23.352;2023-05-07T03:42:28;95381.56;;;10.30;77.01
78835;BME280;68187;42.682;23.352;2023-05-07T03:44:55;95383.66;;;10.28;77.26
78835;BME280;68187;42.682;23.352;2023-05-07T03:47:21;95388.66;;;10.29;77.03
78835;BME280;68187;42.682;23.352;2023-05-07T03:49:48;95391.03;;;10.26;77.09
78835;BME280;68187;42.682;23.352;2023-05-07T03:52:15;95386.03;;;10.24;77.92
78835;BME280;68187;42.682;23.352;2023-05-07T03:54:47;95388.38;;;10.21;77.51
78835;BME280;68187;42.682;23.352;2023-05-07T03:57:15;95391.81;;;10.21;77.49
78835;BME280;68187;42.682;23.352;2023-05-07T03:59:42;95399.47;;;10.23;77.57
78835;BME280;68187;42.682;23.352;2023-05-07T04:02:09;95400.25;;;10.23;77.48
78835;BME280;68187;42.682;23.352;2023-05-07T04:04:35;95403.44;;;10.25;78.08
78835;BME280;68187;42.682;23.352;2023-05-07T04:07:02;95402.13;;;10.28;77.86
78835;BME280;68187;42.682;23.352;2023-05-07T04:09:29;95405.84;;;10.32;77.80
78835;BME280;68187;42.682;23.352;2023-05-07T04:11:56;95400.53;;;10.27;77.92
78835;BME280;68187;42.682;23.352;2023-05-07T04:14:24;95409.03;;;10.34;77.81
78835;BME280;68187;42.682;23.352;2023-05-07T04:16:51;95409.31;;;10.37;77.45
78835;BME280;68187;42.682;23.352;2023-05-07T04:19:17;95422.31;;;10.49;77.10
78835;BME280;68187;42.682;23.352;2023-05-07T04:21:44;95430.00;;;10.55;77.15
78835;BME280;68187;42.682;23.352;2023-05-07T04:24:11;95432.66;;;10.55;76.72
78835;BME280;68187;42.682;23.352;2023-05-07T04:26:37;95441.38;;;10.61;76.55
78835;BME280;68187;42.682;23.352;2023-05-07T04:29:04;95438.25;;;10.64;75.43
78835;BME280;68187;42.682;23.352;2023-05-07T04:31:32;95443.25;;;10.65;75.80
78835;BME280;68187;42.682;23.352;2023-05-07T04:33:59;95439.31;;;10.68;75.51
78835;BME280;68187;42.682;23.352;2023-05-07T04:36:26;95449.09;;;10.72;74.69
78835;BME280;68187;42.682;23.352;2023-05-07T04:38:54;95438.78;;;10.66;75.83
78835;BME280;68187;42.682;23.352;2023-05-07T04:41:21;95452.03;;;10.76;75.00
78835;BME280;68187;42.682;23.352;2023-05-07T04:43:47;95450.19;;;10.82;74.29
78835;BME280;68187;42.682;23.352;2023-05-07T04:46:14;95450.19;;;10.82;74.49
78835;BME280;68187;42.682;23.352;2023-05-07T04:48:42;95453.16;;;10.95;73.57
78835;BME280;68187;42.682;23.352;2023-05-07T04:51:09;95450.28;;;11.02;72.21
78835;BME280;68187;42.682;23.352;2023-05-07T04:53:37;95439.47;;;11.03;72.65
78835;BME280;68187;42.682;23.352;2023-05-07T04:56:04;95441.81;;;11.00;72.68
78835;BME280;68187;42.682;23.352;2023-05-07T04:58:30;95445.28;;;11.15;72.06
78835;BME280;68187;42.682;23.352;2023-05-07T05:00:57;95442.16;;;11.23;71.78
78835;BME280;68187;42.682;23.352;2023-05-07T05:03:24;95447.47;;;11.38;71.41
78835;BME280;68187;42.682;23.352;2023-05-07T05:05:52;95443.03;;;11.49;71.17
78835;BME280;68187;42.682;23.352;2023-05-07T05:08:19;95444.09;;;11.58;71.05
78835;BME280;68187;42.682;23.352;2023-05-07T05:10:45;95439.34;;;11.70;70.38
78835;BME280;68187;42.682;23.352;2023-05-07T05:13:13;95436.72;;;11.75;70.33
78835;BME280;68187;42.682;23.352;2023-05-07T05:15:40;95430.91;;;11.83;70.46
78835;BME280;68187;42.682;23.352;2023-05-07T05:18:10;95443.88;;;12.00;70.84
78835;BME280;68187;42.682;23.352;2023-05-07T05:20:36;95445.72;;;12.04;70.49
78835;BME280;68187;42.682;23.352;2023-05-07T05:23:05;95432.72;;;12.13;70.28
78835;BME280;68187;42.682;23.352;2023-05-07T05:25:31;95442.25;;;12.29;70.25
78835;BME280;68187;42.682;23.352;2023-05-07T05:27:58;95439.59;;;12.39;69.78
78835;BME280;68187;42.682;23.352;2023-05-07T05:30:25;95435.88;;;12.50;69.50
78835;BME280;68187;42.682;23.352;2023-05-07T05:32:51;95434.53;;;12.58;69.64
78835;BME280;68187;42.682;23.352;2023-05-07T05:35:18;95450.91;;;12.75;69.91
78835;BME280;68187;42.682;23.352;2023-05-07T05:37:45;95440.28;;;12.80;69.75
78835;BME280;68187;42.682;23.352;2023-05-07T05:40:13;95443.13;;;12.99;69.03
78835;BME280;68187;42.682;23.352;2023-05-07T05:42:40;95446.84;;;13.08;68.59
78835;BME280;68187;42.682;23.352;2023-05-07T05:45:08;95447.34;;;13.15;68.40
78835;BME280;68187;42.682;23.352;2023-05-07T05:47:35;95443.88;;;13.19;67.78
78835;BME280;68187;42.682;23.352;2023-05-07T05:50:01;95447.81;;;13.27;67.70
78835;BME280;68187;42.682;23.352;2023-05-07T05:52:28;95441.13;;;13.34;67.63
78835;BME280;68187;42.682;23.352;2023-05-07T05:54:55;95444.28;;;13.41;67.65
78835;BME280;68187;42.682;23.352;2023-05-07T05:57:23;95440.00;;;13.50;67.27
78835;BME280;68187;42.682;23.352;2023-05-07T05:59:50;95434.09;;;13.58;66.94
78835;BME280;68187;42.682;23.352;2023-05-07T06:02:17;95442.53;;;13.66;66.63
78835;BME280;68187;42.682;23.352;2023-05-07T06:04:44;95434.81;;;13.74;66.22
78835;BME280;68187;42.682;23.352;2023-05-07T06:07:10;95437.91;;;13.81;65.70
78835;BME280;68187;42.682;23.352;2023-05-07T06:09:37;95444.00;;;13.87;65.22
78835;BME280;68187;42.682;23.352;2023-05-07T06:12:04;95436.25;;;13.90;65.31
78835;BME280;68187;42.682;23.352;2023-05-07T06:14:32;95441.16;;;14.07;65.04
78835;BME280;68187;42.682;23.352;2023-05-07T06:16:59;95439.78;;;14.14;64.67
78835;BME280;68187;42.682;23.352;2023-05-07T06:19:26;95428.88;;;14.16;64.33
78835;BME280;68187;42.682;23.352;2023-05-07T06:21:53;95425.66;;;14.19;63.99
78835;BME280;68187;42.682;23.352;2023-05-07T06:24:21;95439.00;;;14.43;63.61
78835;BME280;68187;42.682;23.352;2023-05-07T06:26:48;95429.69;;;14.45;63.47
78835;BME280;68187;42.682;23.352;2023-05-07T06:29:15;95420.03;;;14.54;63.86
78835;BME280;68187;42.682;23.352;2023-05-07T06:31:43;95430.53;;;14.69;63.28
78835;BME280;68187;42.682;23.352;2023-05-07T06:34:09;95419.75;;;14.79;62.76
78835;BME280;68187;42.682;23.352;2023-05-07T06:36:39;95425.19;;;14.93;62.47
78835;BME280;68187;42.682;23.352;2023-05-07T06:39:06;95417.50;;;14.91;62.15
78835;BME280;68187;42.682;23.352;2023-05-07T06:41:33;95407.97;;;15.09;62.15
78835;BME280;68187;42.682;23.352;2023-05-07T06:43:59;95414.47;;;15.22;61.04
78835;BME280;68187;42.682;23.352;2023-05-07T06:46:27;95414.81;;;15.34;60.34
78835;BME280;68187;42.682;23.352;2023-05-07T06:48:55;95413.34;;;15.46;60.74
78835;BME280;68187;42.682;23.352;2023-05-07T06:51:22;95408.47;;;15.53;60.17
78835;BME280;68187;42.682;23.352;2023-05-07T06:53:49;95409.31;;;15.67;59.92
78835;BME280;68187;42.682;23.352;2023-05-07T06:56:16;95402.03;;;15.73;59.53
78835;BME280;68187;42.682;23.352;2023-05-07T06:58:43;95394.91;;;15.68;58.96
78835;BME280;68187;42.682;23.352;2023-05-07T07:01:09;95402.47;;;15.80;58.64
78835;BME280;68187;42.682;23.352;2023-05-07T07:03:36;95401.03;;;15.88;58.73
78835;BME280;68187;42.682;23.352;2023-05-07T07:06:04;95407.66;;;16.04;58.63
78835;BME280;68187;42.682;23.352;2023-05-07T07:08:31;95410.97;;;16.14;59.36
78835;BME280;68187;42.682;23.352;2023-05-07T07:10:58;95407.69;;;16.17;59.47
78835;BME280;68187;42.682;23.352;2023-05-07T07:13:25;95405.84;;;16.18;58.90
78835;BME280;68187;42.682;23.352;2023-05-07T07:15:51;95397.19;;;16.26;59.51
78835;BME280;68187;42.682;23.352;2023-05-07T07:18:19;95402.63;;;16.34;59.02
78835;BME280;68187;42.682;23.352;2023-05-07T07:20:45;95396.31;;;16.44;58.72
78835;BME280;68187;42.682;23.352;2023-05-07T07:23:13;95395.75;;;16.61;56.19
78835;BME280;68187;42.682;23.352;2023-05-07T07:25:40;95390.66;;;16.64;56.29
78835;BME280;68187;42.682;23.352;2023-05-07T07:28:07;95381.75;;;16.69;56.08
78835;BME280;68187;42.682;23.352;2023-05-07T07:30:33;95392.91;;;16.84;57.01
78835;BME280;68187;42.682;23.352;2023-05-07T07:33:00;95389.25;;;16.94;57.28
78835;BME280;68187;42.682;23.352;2023-05-07T07:35:28;95387.16;;;17.04;55.19
78835;BME280;68187;42.682;23.352;2023-05-07T07:37:55;95392.31;;;17.15;54.98
78835;BME280;68187;42.682;23.352;2023-05-07T07:40:23;95400.19;;;17.20;55.77
78835;BME280;68187;42.682;23.352;2023-05-07T07:42:50;95391.69;;;17.18;53.92
78835;BME280;68187;42.682;23.352;2023-05-07T07:45:17;95382.91;;;17.17;55.25
78835;BME280;68187;42.682;23.352;2023-05-07T07:47:44;95398.59;;;17.32;55.06
78835;BME280;68187;42.682;23.352;2023-05-07T07:50:11;95402.94;;;17.42;54.85
78835;BME280;68187;42.682;23.352;2023-05-07T07:52:38;95401.16;;;17.51;55.65
78835;BME280;68187;42.682;23.352;2023-05-07T07:55:06;95404.38;;;17.61;56.31
78835;BME280;68187;42.682;23.352;2023-05-07T07:57:34;95403.69;;;17.69;54.15
78835;BME280;68187;42.682;23.352;2023-05-07T08:00:01;95405.03;;;17.80;53.71
78835;BME280;68187;42.682;23.352;2023-05-07T08:02:27;95396.22;;;17.80;52.06
78835;BME280;68187;42.682;23.352;2023-05-07T08:04:54;95390.44;;;17.87;52.33
78835;BME280;68187;42.682;23.352;2023-05-07T08:07:21;95398.78;;;17.85;51.67
78835;BME280;68187;42.682;23.352;2023-05-07T08:09:48;95393.59;;;17.89;51.78
78835;BME280;68187;42.682;23.352;2023-05-07T08:12:14;95388.56;;;17.87;53.95
78835;BME280;68187;42.682;23.352;2023-05-07T08:14:43;95390.38;;;18.00;53.53
78835;BME280;68187;42.682;23.352;2023-05-07T08:17:09;95386.84;;;18.13;53.79
78835;BME280;68187;42.682;23.352;2023-05-07T08:19:36;95391.94;;;18.23;52.97
78835;BME280;68187;42.682;23.352;2023-05-07T08:22:03;95389.63;;;18.30;51.02
78835;BME280;68187;42.682;23.352;2023-05-07T08:24:30;95391.13;;;18.45;51.44
78835;BME280;68187;42.682;23.352;2023-05-07T08:26:57;95378.06;;;18.43;49.51
78835;BME280;68187;42.682;23.352;2023-05-07T08:29:24;95377.81;;;18.53;51.04
78835;BME280;68187;42.682;23.352;2023-05-07T08:31:52;95375.19;;;18.62;48.86
78835;BME280;68187;42.682;23.352;2023-05-07T08:34:19;95380.69;;;18.66;48.58
78835;BME280;68187;42.682;23.352;2023-05-07T08:36:46;95372.53;;;18.71;49.32
78835;BME280;68187;42.682;23.352;2023-05-07T08:39:14;95371.16;;;18.82;48.87
78835;BME280;68187;42.682;23.352;2023-05-07T08:41:44;95371.84;;;18.96;49.43
78835;BME280;68187;42.682;23.352;2023-05-07T08:44:12;95374.25;;;19.14;51.30
78835;BME280;68187;42.682;23.352;2023-05-07T08:46:41;95372.38;;;19.23;47.46
78835;BME280;68187;42.682;23.352;2023-05-07T08:49:10;95364.03;;;19.34;49.24
78835;BME280;68187;42.682;23.352;2023-05-07T08:51:37;95362.66;;;19.53;46.26
78835;BME280;68187;42.682;23.352;2023-05-07T08:54:04;95367.22;;;19.70;45.38
78835;BME280;68187;42.682;23.352;2023-05-07T08:56:32;95361.06;;;19.86;44.07
78835;BME280;68187;42.682;23.352;2023-05-07T08:58:59;95359.16;;;20.04;45.32
78835;BME280;68187;42.682;23.352;2023-05-07T09:01:26;95346.84;;;20.12;42.33
78835;BME280;68187;42.682;23.352;2023-05-07T09:03:53;95350.13;;;20.17;40.89
78835;BME280;68187;42.682;23.352;2023-05-07T09:06:21;95352.19;;;20.29;44.02
78835;BME280;68187;42.682;23.352;2023-05-07T09:08:52;95349.00;;;20.44;43.50
78835;BME280;68187;42.682;23.352;2023-05-07T09:11:22;95346.78;;;20.46;40.99
78835;BME280;68187;42.682;23.352;2023-05-07T09:13:53;95344.13;;;20.29;40.88
78835;BME280;68187;42.682;23.352;2023-05-07T09:16:21;95342.25;;;20.29;40.76
78835;BME280;68187;42.682;23.352;2023-05-07T09:18:50;95335.59;;;20.35;42.05
78835;BME280;68187;42.682;23.352;2023-05-07T09:21:18;95342.13;;;20.63;45.63
78835;BME280;68187;42.682;23.352;2023-05-07T09:23:47;95331.13;;;20.86;40.42
78835;BME280;68187;42.682;23.352;2023-05-07T09:26:14;95330.41;;;20.97;40.39
78835;BME280;68187;42.682;23.352;2023-05-07T09:28:41;95335.28;;;21.12;40.68
78835;BME280;68187;42.682;23.352;2023-05-07T09:31:09;95330.41;;;21.26;39.06
78835;BME280;68187;42.682;23.352;2023-05-07T09:33:36;95324.75;;;21.28;38.29
78835;BME280;68187;42.682;23.352;2023-05-07T09:36:03;95323.44;;;21.34;38.37
78835;BME280;68187;42.682;23.352;2023-05-07T09:38:31;95322.78;;;21.37;37.77
78835;BME280;68187;42.682;23.352;2023-05-07T09:41:03;95307.56;;;21.41;37.47
78835;BME280;68187;42.682;23.352;2023-05-07T09:43:34;95299.81;;;21.60;37.60
78835;BME280;68187;42.682;23.352;2023-05-07T09:46:07;95311.00;;;21.83;37.00
78835;BME280;68187;42.682;23.352;2023-05-07T09:48:39;95308.28;;;21.91;37.98
78835;BME280;68187;42.682;23.352;2023-05-07T09:51:14;95307.09;;;22.13;36.45
78835;BME280;68187;42.682;23.352;2023-05-07T09:54:01;95310.59;;;22.38;35.86
78835;BME280;68187;42.682;23.352;2023-05-07T09:56:30;95295.00;;;22.19;34.63
78835;BME280;68187;42.682;23.352;2023-05-07T09:58:59;95291.72;;;21.81;35.21
78835;BME280;68187;42.682;23.352;2023-05-07T10:01:26;95308.47;;;21.66;37.01
78835;BME280;68187;42.682;23.352;2023-05-07T10:03:54;95294.91;;;21.62;34.59
78835;BME280;68187;42.682;23.352;2023-05-07T10:06:25;95284.34;;;21.57;33.66
78835;BME280;68187;42.682;23.352;2023-05-07T10:08:52;95285.59;;;21.60;33.84
78835;BME280;68187;42.682;23.352;2023-05-07T10:11:20;95292.97;;;21.83;34.44
78835;BME280;68187;42.682;23.352;2023-05-07T10:13:49;95283.75;;;22.05;35.10
78835;BME280;68187;42.682;23.352;2023-05-07T10:16:19;95291.75;;;22.38;31.18
78835;BME280;68187;42.682;23.352;2023-05-07T10:18:47;95279.66;;;22.56;30.65
78835;BME280;68187;42.682;23.352;2023-05-07T10:21:17;95280.06;;;22.66;30.76
78835;BME280;68187;42.682;23.352;2023-05-07T10:23:45;95274.78;;;22.82;29.73
78835;BME280;68187;42.682;23.352;2023-05-07T10:26:13;95275.97;;;22.97;28.77
78835;BME280;68187;42.682;23.352;2023-05-07T10:28:44;95275.31;;;23.00;29.99
78835;BME280;68187;42.682;23.352;2023-05-07T10:31:29;95271.63;;;22.80;31.29
78835;BME280;68187;42.682;23.352;2023-05-07T10:34:07;95266.69;;;22.70;29.35
78835;BME280;68187;42.682;23.352;2023-05-07T10:36:36;95255.78;;;22.79;29.16
78835;BME280;68187;42.682;23.352;2023-05-07T10:39:05;95254.53;;;23.00;30.71
78835;BME280;68187;42.682;23.352;2023-05-07T10:41:32;95256.28;;;23.20;29.98
78835;BME280;68187;42.682;23.352;2023-05-07T10:43:59;95246.50;;;23.28;29.00
78835;BME280;68187;42.682;23.352;2023-05-07T10:46:29;95250.84;;;23.45;32.94
78835;BME280;68187;42.682;23.352;2023-05-07T10:49:09;95247.28;;;23.68;31.28
78835;BME280;68187;42.682;23.352;2023-05-07T10:51:37;95246.88;;;23.82;29.57
78835;BME280;68187;42.682;23.352;2023-05-07T10:54:20;95250.88;;;23.88;29.46
78835;BME280;68187;42.682;23.352;2023-05-07T10:56:47;95237.13;;;23.77;29.06
78835;BME280;68187;42.682;23.352;2023-05-07T10:59:35;95248.78;;;23.81;29.24
78835;BME280;68187;42.682;23.352;2023-05-07T11:02:08;95243.13;;;23.86;30.20
78835;BME280;68187;42.682;23.352;2023-05-07T11:04:37;95250.56;;;23.89;29.31
78835;BME280;68187;42.682;23.352;2023-05-07T11:07:25;95240.38;;;23.83;28.75
78835;BME280;68187;42.682;23.352;2023-05-07T11:10:02;95242.28;;;23.98;30.19
78835;BME280;68187;42.682;23.352;2023-05-07T11:12:50;95248.72;;;23.93;29.33
78835;BME280;68187;42.682;23.352;2023-05-07T11:15:38;95241.47;;;24.09;29.10
78835;BME280;68187;42.682;23.352;2023-05-07T11:18:06;95241.22;;;24.15;28.82
78835;BME280;68187;42.682;23.352;2023-05-07T11:20:50;95238.22;;;24.35;28.48
78835;BME280;68187;42.682;23.352;2023-05-07T11:23:55;95235.09;;;24.64;29.06
78835;BME280;68187;42.682;23.352;2023-05-07T11:26:22;95232.31;;;24.76;28.12
78835;BME280;68187;42.682;23.352;2023-05-07T11:28:51;95231.78;;;24.87;27.85
78835;BME280;68187;42.682;23.352;2023-05-07T11:31:21;95218.63;;;24.85;25.94
78835;BME280;68187;42.682;23.352;2023-05-07T11:33:50;95217.22;;;24.91;27.59
78835;BME280;68187;42.682;23.352;2023-05-07T11:36:18;95222.81;;;24.83;24.76
78835;BME280;68187;42.682;23.352;2023-05-07T11:38:45;95221.81;;;24.91;27.49
78835;BME280;68187;42.682;23.352;2023-05-07T11:41:11;95224.16;;;25.08;25.66
78835;BME280;68187;42.682;23.352;2023-05-07T11:43:53;95212.53;;;25.07;25.85
78835;BME280;68187;42.682;23.352;2023-05-07T11:46:21;95215.34;;;25.30;27.69
78835;BME280;68187;42.682;23.352;2023-05-07T11:48:49;95217.88;;;25.42;26.24
78835;BME280;68187;42.682;23.352;2023-05-07T11:51:19;95205.31;;;25.49;25.41
78835;BME280;68187;42.682;23.352;2023-05-07T11:53:46;95218.47;;;25.51;25.40
78835;BME280;68187;42.682;23.352;2023-05-07T11:56:14;95210.72;;;25.49;23.80
78835;BME280;68187;42.682;23.352;2023-05-07T11:58:42;95209.13;;;25.29;25.54
78835;BME280;68187;42.682;23.352;2023-05-07T12:01:10;95211.03;;;25.29;25.14
78835;BME280;68187;42.682;23.352;2023-05-07T12:03:39;95211.28;;;25.39;26.48
78835;BME280;68187;42.682;23.352;2023-05-07T12:06:09;95201.41;;;25.47;24.17
78835;BME280;68187;42.682;23.352;2023-05-07T12:08:37;95196.41;;;25.49;25.29
78835;BME280;68187;42.682;23.352;2023-05-07T12:11:07;95190.81;;;25.58;25.06
78835;BME280;68187;42.682;23.352;2023-05-07T12:13:33;95186.78;;;25.71;25.17
78835;BME280;68187;42.682;23.352;2023-05-07T12:16:00;95180.44;;;25.82;25.56
78835;BME280;68187;42.682;23.352;2023-05-07T12:18:28;95155.00;;;25.87;23.78
78835;BME280;68187;42.682;23.352;2023-05-07T12:20:56;95186.75;;;26.12;24.29
78835;BME280;68187;42.682;23.352;2023-05-07T12:23:24;95180.50;;;26.08;24.18
78835;BME280;68187;42.682;23.352;2023-05-07T12:25:52;95177.06;;;25.89;25.06
78835;BME280;68187;42.682;23.352;2023-05-07T12:28:19;95179.50;;;25.75;25.13
78835;BME280;68187;42.682;23.352;2023-05-07T12:30:47;95179.50;;;25.75;24.23
78835;BME280;68187;42.682;23.352;2023-05-07T12:33:16;95152.97;;;25.61;24.08
78835;BME280;68187;42.682;23.352;2023-05-07T12:35:44;95165.19;;;25.74;23.72
78835;BME280;68187;42.682;23.352;2023-05-07T12:38:12;95160.34;;;25.83;24.04
78835;BME280;68187;42.682;23.352;2023-05-07T12:40:42;95157.63;;;26.06;23.02
78835;BME280;68187;42.682;23.352;2023-05-07T12:43:15;95146.78;;;26.06;22.85
78835;BME280;68187;42.682;23.352;2023-05-07T12:45:43;95153.97;;;26.17;23.01
78835;BME280;68187;42.682;23.352;2023-05-07T12:48:10;95155.66;;;26.26;22.90
78835;BME280;68187;42.682;23.352;2023-05-07T12:50:37;95136.38;;;26.08;22.78
78835;BME280;68187;42.682;23.352;2023-05-07T12:53:04;95133.69;;;25.63;22.89
78835;BME280;68187;42.682;23.352;2023-05-07T12:55:32;95140.47;;;25.34;22.75